Time;durP1;ratioP1;P1;durP2;ratioP2;P2;SDS_P1;SDS_P2;PMS_P1;PMS_P2;Temp;Humidity;BMP_temperature;BMP_pressure;BME280_temperature;BME280_humidity;BME280_pressure;Samples;Min_cycle;Max_cycle;Signal;HPM_P1;HPM_P2
2022/05/23 00:00:11;;;;;;;10.90;5.40;;;;;;;17.88;59.15;100534.94;6265809;23;20019;-79
2022/05/23 00:03:16;;;;;;;14.38;6.43;;;;;;;17.83;59.32;100533.34;6293601;23;20010;-81
2022/05/23 00:06:02;;;;;;;15.30;6.22;;;;;;;17.70;59.86;100536.63;6286116;23;20370;-80
2022/05/23 00:09:02;;;;;;;11.65;5.50;;;;;;;17.64;60.27;100529.84;6309329;23;20401;-81
2022/05/23 00:13:01;;;;;;;;;;;;;;;;;;;;;
2022/05/23 00:16:06;;;;;;;9.60;6.00;;;;;;;17.61;60.44;100535.28;6275473;23;20022;-81
2022/05/23 00:19:05;;;;;;;14.27;5.72;;;;;;;17.49;62.12;100537.53;6279917;23;20016;-81
2022/05/23 00:25:38;;;;;;;9.70;5.43;;;;;;;17.41;61.33;100515.97;6230083;23;20118;-82
2022/05/23 00:28:42;;;;;;;;;;;;;;;;;;;;;
2022/05/23 00:50:19;;;;;;;14.32;6.10;;;;;;;17.35;63.02;100510.97;6471722;22;20019;-81
2022/05/23 00:53:21;;;;;;;13.95;6.10;;;;;;;17.25;64.23;100491.25;6564043;22;20015;-80
2022/05/23 00:59:37;;;;;;;;;;;;;;;;;;;;;
2022/05/23 01:02:55;;;;;;;13.02;7.15;;;;;;;17.17;64.14;100491.59;6563658;22;20078;-82
2022/05/23 01:20:34;;;;;;;;;;;;;;;;;;;;;
2022/05/23 01:23:50;;;;;;;14.27;6.85;;;;;;;16.97;65.08;100500.38;6113046;24;20081;-81
2022/05/23 01:33:27;;;;;;;14.77;6.13;;;;;;;16.67;66.70;100481.47;5998224;24;20037;-81
2022/05/23 01:36:14;;;;;;;13.65;7.00;;;;;;;16.54;67.72;100470.63;5998026;24;20019;-81
2022/05/23 01:38:55;;;;;;;12.45;6.30;;;;;;;16.40;67.31;100466.81;5998474;24;20463;-81
2022/05/23 01:41:40;;;;;;;14.02;7.10;;;;;;;16.27;68.34;100464.75;5998088;24;20023;-80
2022/05/23 01:44:23;;;;;;;10.25;6.93;;;;;;;16.26;68.33;100474.41;5997731;24;20012;-81
2022/05/23 01:47:22;;;;;;;13.15;6.97;;;;;;;16.28;67.85;100464.69;5993515;24;20028;-81
2022/05/23 01:50:18;;;;;;;10.90;6.20;;;;;;;16.32;67.45;100470.66;5974353;24;20039;-81
2022/05/23 01:52:58;;;;;;;9.30;6.70;;;;;;;16.18;68.57;100466.84;6013499;24;20396;-81
2022/05/23 01:55:57;;;;;;;11.40;7.00;;;;;;;16.07;69.25;100471.69;6014915;24;20018;-82
2022/05/23 02:01:25;;;;;;;;;;;;;;;16.28;66.25;100469.94;6194296;24;20021;-81
2022/05/23 02:04:02;;;;;;;14.60;7.57;;;;;;;16.03;69.03;100459.56;6171539;24;19922;-81
2022/05/23 02:06:37;;;;;;;12.65;7.03;;;;;;;15.99;70.63;100448.31;6243870;23;20470;-81
2022/05/23 02:09:14;;;;;;;13.02;7.30;;;;;;;15.91;70.29;100455.66;6318365;23;20014;-82
2022/05/23 02:12:04;;;;;;;13.68;6.85;;;;;;;15.95;70.14;100453.75;6317691;23;20552;-81
2022/05/23 02:14:47;;;;;;;13.32;7.20;;;;;;;15.97;70.59;100452.78;6342557;23;20010;-81
2022/05/23 02:17:35;;;;;;;16.02;7.28;;;;;;;15.85;70.60;100454.13;6318123;23;20092;-81
2022/05/23 02:20:16;;;;;;;11.65;7.18;;;;;;;15.87;70.51;100461.94;6360004;23;20023;-80
2022/05/23 02:23:10;;;;;;;13.57;7.38;;;;;;;15.93;71.02;100464.34;6443668;22;20012;-80
2022/05/23 02:26:00;;;;;;;11.88;7.28;;;;;;;15.87;70.40;100461.94;6504730;22;20042;-81
2022/05/23 02:28:43;;;;;;;12.07;7.57;;;;;;;15.79;71.10;100456.16;6531126;22;20065;-81
2022/05/23 02:31:21;;;;;;;12.00;7.53;;;;;;;15.80;71.02;100442.09;6531070;22;20008;-81
2022/05/23 02:33:53;;;;;;;13.50;8.23;;;;;;;15.78;72.02;100438.69;6504640;22;20034;-81
2022/05/23 02:36:28;;;;;;;14.23;7.53;;;;;;;15.95;72.22;100440.63;6502076;22;20090;-80
2022/05/23 02:39:12;;;;;;;11.52;7.07;;;;;;;15.85;71.30;100435.72;6503656;22;20367;-81
2022/05/23 02:41:52;;;;;;;11.13;7.15;;;;;;;15.78;71.17;100422.91;6503270;22;20099;-81
2022/05/23 02:44:26;;;;;;;10.38;7.10;;;;;;;15.85;72.25;100424.38;6530842;22;20003;-81
2022/05/23 02:47:07;;;;;;;14.57;7.82;;;;;;;15.76;71.16;100425.59;6525913;22;20021;-81
2022/05/23 02:49:39;;;;;;;14.82;8.50;;;;;;;15.65;71.99;100407.59;6562933;22;20086;-80
2022/05/23 02:52:10;;;;;;;9.47;6.70;;;;;;;15.59;71.76;100405.22;6562219;22;20030;-81
2022/05/23 02:54:41;;;;;;;13.80;7.57;;;;;;;15.60;72.65;100398.19;6562507;22;20004;-80
2022/05/23 02:57:13;;;;;;;11.60;7.37;;;;;;;15.49;72.52;100396.84;6562568;22;20074;-81
2022/05/23 02:59:45;;;;;;;15.93;8.10;;;;;;;15.40;72.82;100391.09;6562257;22;20460;-81
2022/05/23 03:05:07;;;;;;;9.25;7.20;;;;;;;15.45;73.75;100365.50;6562106;22;20011;-81
2022/05/23 03:07:38;;;;;;;15.60;8.00;;;;;;;15.50;73.37;100353.91;6562743;22;20054;-80
2022/05/23 03:10:09;;;;;;;13.67;7.80;;;;;;;15.38;73.49;100340.41;6562845;22;20027;-81
2022/05/23 03:12:41;;;;;;;16.37;8.67;;;;;;;15.38;73.48;100336.00;6563227;22;20003;-80
2022/05/23 03:15:13;;;;;;;11.50;7.83;;;;;;;15.39;73.54;100329.84;6562657;22;20009;-80
2022/05/23 03:17:44;;;;;;;13.77;7.93;;;;;;;15.40;74.09;100341.19;6560569;22;20014;-80
2022/05/23 03:20:17;;;;;;;13.17;7.53;;;;;;;15.47;75.04;100332.13;6534572;22;20017;-81
2022/05/23 03:28:29;;;;;;;11.75;7.93;;;;;;;15.20;74.56;100319.22;6563187;22;20019;-82
2022/05/23 03:31:00;;;;;;;12.23;7.88;;;;;;;15.19;74.81;100314.88;6562909;22;20003;-81
2022/05/23 03:33:33;;;;;;;13.13;8.83;;;;;;;15.06;75.16;100313.66;6562393;22;20775;-81
2022/05/23 03:36:04;;;;;;;13.68;9.27;;;;;;;15.10;75.23;100308.22;6562617;22;20041;-80
2022/05/23 03:38:36;;;;;;;12.07;8.40;;;;;;;14.99;75.88;100299.91;6563337;22;19999;-82
2022/05/23 03:41:09;;;;;;;16.80;8.90;;;;;;;15.08;75.87;100301.31;6561811;22;20054;-80
2022/05/23 03:43:40;;;;;;;13.77;8.57;;;;;;;14.99;76.68;100294.66;6561782;22;20098;-79
2022/05/23 03:46:14;;;;;;;12.47;8.20;;;;;;;14.93;76.66;100287.03;6562639;22;20007;-81
2022/05/23 03:48:48;;;;;;;12.93;8.60;;;;;;;14.91;76.72;100296.72;6562750;22;20303;-80
2022/05/23 03:51:20;;;;;;;13.85;8.35;;;;;;;14.97;77.60;100290.38;6563439;22;20010;-80
2022/05/23 03:53:51;;;;;;;15.50;8.83;;;;;;;14.88;77.48;100286.34;6562059;22;19999;-80
2022/05/23 03:56:22;;;;;;;16.90;9.00;;;;;;;14.77;77.31;100277.09;6563041;22;20025;-81
2022/05/23 03:58:54;;;;;;;12.87;8.20;;;;;;;14.87;77.97;100282.00;6560928;22;20030;-80
2022/05/23 04:01:27;;;;;;;13.70;8.93;;;;;;;14.77;78.42;100282.34;6562385;22;20082;-81
2022/05/23 04:03:59;;;;;;;12.40;9.43;;;;;;;14.79;78.72;100279.66;6562342;22;20082;-81
2022/05/23 04:06:35;;;;;;;13.48;8.30;;;;;;;14.79;77.79;100279.66;6560827;22;20065;-81
2022/05/23 04:09:07;;;;;;;11.85;7.80;;;;;;;14.83;77.76;100277.78;6534133;22;20015;-80
2022/05/23 04:11:38;;;;;;;14.35;8.82;;;;;;;14.77;77.78;100265.75;6562608;22;20007;-80
2022/05/23 04:14:10;;;;;;;13.77;8.43;;;;;;;14.75;78.22;100268.44;6564228;22;20124;-80
2022/05/23 04:16:46;;;;;;;14.50;9.07;;;;;;;14.77;78.46;100253.50;6565418;22;20014;-80
2022/05/23 04:19:21;;;;;;;15.10;9.18;;;;;;;14.80;78.76;100252.53;6564023;22;20003;-80
2022/05/23 04:21:53;;;;;;;11.77;8.38;;;;;;;14.79;78.15;100245.56;6561969;22;20027;-80
2022/05/23 04:24:24;;;;;;;16.67;8.67;;;;;;;14.88;78.82;100254.88;6562425;22;20003;-80
2022/05/23 04:26:57;;;;;;;12.67;8.30;;;;;;;14.91;78.35;100252.97;6562837;22;20398;-79
2022/05/23 04:29:28;;;;;;;13.90;8.98;;;;;;;15.08;78.22;100248.81;6562440;22;20320;-80
2022/05/23 04:32:00;;;;;;;15.87;8.57;;;;;;;15.16;78.72;100248.50;6563530;22;20007;-79
2022/05/23 04:35:31;;;;;;;15.83;8.90;;;;;;;15.22;79.17;100245.63;6563223;22;20003;-80
2022/05/23 04:37:32;;;;;;;15.10;9.25;;;;;;;15.30;78.27;100246.19;6544392;22;20014;-80
2022/05/23 04:40:04;;;;;;;13.47;9.23;;;;;;;15.52;77.26;100251.41;6562785;22;20021;-80
2022/05/23 04:42:35;;;;;;;14.50;8.35;;;;;;;15.57;76.70;100245.94;6565241;22;20413;-80
2022/05/23 04:45:09;;;;;;;13.93;8.23;;;;;;;15.52;76.35;100242.66;6562163;22;20049;-80
2022/05/23 04:50:33;;;;;;;16.30;8.45;;;;;;;15.72;76.40;100239.19;6562523;22;20014;-79
2022/05/23 04:53:05;;;;;;;13.63;8.10;;;;;;;15.77;76.02;100232.84;6560504;22;20053;-79
2022/05/23 04:55:38;;;;;;;13.63;7.82;;;;;;;15.78;76.45;100224.03;6560319;22;20003;-80
2022/05/23 04:58:11;;;;;;;13.02;7.80;;;;;;;15.85;76.48;100227.25;6560541;22;20018;-80
2022/05/23 05:00:43;;;;;;;11.88;7.85;;;;;;;15.83;75.55;100224.69;6560498;22;20014;-80
2022/05/23 05:03:16;;;;;;;13.95;8.68;;;;;;;15.95;76.77;100225.06;6560494;22;20014;-81
2022/05/23 05:05:47;;;;;;;15.68;7.45;;;;;;;16.03;75.82;100221.19;6559834;22;20860;-80
2022/05/23 05:08:19;;;;;;;15.67;7.10;;;;;;;16.21;74.93;100224.78;6560428;22;20003;-81
2022/05/23 05:10:50;;;;;;;13.50;7.17;;;;;;;16.22;74.86;100218.56;6562120;22;20056;-79
2022/05/23 05:13:22;;;;;;;13.20;7.53;;;;;;;16.20;75.01;100209.91;6563755;22;20494;-80
2022/05/23 05:16:02;;;;;;;13.50;8.07;;;;;;;16.27;74.37;100210.47;6565224;22;20011;-80
2022/05/23 05:18:34;;;;;;;11.10;6.95;;;;;;;16.35;75.11;100189.94;6561829;22;20038;-81
2022/05/23 05:21:08;;;;;;;12.38;7.47;;;;;;;16.43;74.86;100179.06;6562322;22;20060;-81
2022/05/23 05:23:40;;;;;;;17.63;7.85;;;;;;;16.41;74.84;100181.75;6570554;22;20011;-82
2022/05/23 05:26:11;;;;;;;12.37;7.60;;;;;;;16.60;74.36;100167.75;6571022;22;20599;-80
2022/05/23 05:28:43;;;;;;;12.80;7.47;;;;;;;16.57;73.31;100174.00;6571297;22;20022;-81
2022/05/23 05:31:46;;;;;;;14.67;8.23;;;;;;;16.81;72.75;100172.88;6574558;22;20321;-79
2022/05/23 05:34:40;;;;;;;13.57;7.60;;;;;;;16.86;73.24;100168.31;6567225;22;20007;-81
2022/05/23 05:37:19;;;;;;;17.35;7.40;;;;;;;16.92;72.33;100162.72;6573808;22;20069;-80
2022/05/23 05:39:53;;;;;;;16.88;8.00;;;;;;;16.94;72.74;100158.25;6568700;22;20003;-80
2022/05/23 05:42:40;;;;;;;10.27;7.53;;;;;;;16.95;71.78;100152.03;6564306;22;20079;-80
2022/05/23 05:45:17;;;;;;;16.92;8.80;;;;;;;17.18;72.04;100145.66;6561692;22;20332;-79
2022/05/23 05:47:50;;;;;;;14.65;7.88;;;;;;;17.19;71.21;100149.13;6563288;22;20508;-80
2022/05/23 05:50:27;;;;;;;15.93;8.25;;;;;;;17.25;70.67;100141.75;6561015;22;20410;-80
2022/05/23 05:53:04;;;;;;;12.35;7.57;;;;;;;17.28;70.05;100138.97;6563588;22;20004;-79
2022/05/23 05:55:39;;;;;;;12.40;8.18;;;;;;;17.38;71.46;100126.16;6562174;22;20101;-80
2022/05/23 05:58:11;;;;;;;12.77;7.50;;;;;;;17.38;69.01;100139.34;6561232;22;20480;-80
2022/05/23 06:00:42;;;;;;;15.63;8.50;;;;;;;17.47;68.78;100130.13;6562033;22;20019;-80
2022/05/23 06:03:13;;;;;;;12.10;6.90;;;;;;;17.52;69.54;100135.13;6562561;22;20443;-80
2022/05/23 06:11:26;;;;;;;13.70;8.23;;;;;;;17.87;67.81;100133.31;6562488;22;20011;-80
2022/05/23 06:13:59;;;;;;;13.85;7.70;;;;;;;17.91;67.63;100139.28;6561480;22;19998;-80
2022/05/23 06:16:34;;;;;;;12.95;8.68;;;;;;;17.95;67.38;100130.25;6564062;22;20461;-80
2022/05/23 06:19:06;;;;;;;13.80;7.70;;;;;;;18.04;66.01;100119.22;6562822;22;20003;-80
2022/05/23 06:21:37;;;;;;;10.05;7.15;;;;;;;18.20;66.82;100120.06;6563764;22;20059;-80
2022/05/23 06:24:09;;;;;;;10.90;7.20;;;;;;;18.32;67.71;100113.28;6563774;22;20428;-80
2022/05/23 06:26:40;;;;;;;13.00;7.60;;;;;;;18.36;67.87;100109.53;6562934;22;20015;-79
2022/05/23 06:29:12;;;;;;;16.13;6.53;;;;;;;18.46;65.44;100098.47;6563517;22;20003;-79
2022/05/23 06:31:46;;;;;;;11.03;7.60;;;;;;;18.50;65.09;100106.13;6561349;22;20003;-79
2022/05/23 06:34:17;;;;;;;14.18;7.22;;;;;;;18.47;64.79;100094.91;6562815;22;20404;-79
2022/05/23 06:36:49;;;;;;;13.50;7.77;;;;;;;18.53;65.15;100099.78;6560982;22;20061;-80
2022/05/23 06:39:20;;;;;;;13.80;6.77;;;;;;;18.58;65.07;100097.78;6563003;22;19999;-80
2022/05/23 06:41:52;;;;;;;15.10;7.20;;;;;;;18.67;63.28;100104.31;6561903;22;20030;-81
2022/05/23 06:44:23;;;;;;;12.70;7.17;;;;;;;18.62;63.64;100104.56;6562899;22;20066;-80
2022/05/23 06:46:54;;;;;;;11.77;7.57;;;;;;;18.68;63.78;100106.00;6563587;22;20086;-80
2022/05/23 06:49:26;;;;;;;11.40;6.57;;;;;;;18.86;64.86;100104.13;6563305;22;20026;-79
2022/05/23 06:51:57;;;;;;;11.40;7.13;;;;;;;19.03;63.23;100103.13;6561422;22;20065;-80
2022/05/23 06:54:29;;;;;;;11.77;6.77;;;;;;;19.20;62.36;100105.63;6563701;22;20007;-80
2022/05/23 06:57:01;;;;;;;10.93;7.17;;;;;;;19.40;61.62;100099.16;6563669;22;20003;-80
2022/05/23 06:59:32;;;;;;;15.25;7.13;;;;;;;19.47;61.50;100112.84;6564865;22;20463;-81
2022/05/23 07:02:07;;;;;;;9.40;7.20;;;;;;;19.60;61.18;100108.50;6541357;22;20505;-80
2022/05/23 07:13:08;;;;;;;11.32;6.63;;;;;;;19.79;59.40;100108.25;6583125;22;20015;-80
2022/05/23 07:15:46;;;;;;;10.80;6.87;;;;;;;19.83;60.15;100096.50;6540057;22;20611;-81
2022/05/23 07:18:19;;;;;;;9.73;5.68;;;;;;;19.75;60.13;100096.13;6562965;22;20014;-80
2022/05/23 07:20:51;;;;;;;8.43;5.78;;;;;;;19.70;59.28;100098.19;6565600;22;20034;-81
2022/05/23 07:23:23;;;;;;;8.85;6.53;;;;;;;19.67;59.80;100099.25;6574579;22;20007;-80
2022/05/23 07:25:54;;;;;;;10.05;5.53;;;;;;;19.72;59.27;100095.47;6583604;22;19994;-80
2022/05/23 07:28:26;;;;;;;14.50;5.87;;;;;;;19.79;60.66;100091.53;6584875;22;20045;-79
2022/05/23 07:30:58;;;;;;;14.60;6.20;;;;;;;19.92;61.25;100102.19;6582293;22;20352;-78
2022/05/23 07:33:30;;;;;;;12.68;6.63;;;;;;;19.97;60.85;100108.03;6582298;22;20003;-81
2022/05/23 07:36:02;;;;;;;9.52;5.53;;;;;;;20.13;59.14;100100.00;6580603;22;20007;-79
2022/05/23 07:38:34;;;;;;;10.00;5.80;;;;;;;20.41;60.07;100104.34;6579710;22;20023;-80
2022/05/23 07:41:07;;;;;;;9.18;5.95;;;;;;;20.77;57.03;100101.13;6581272;22;20003;-80
2022/05/23 07:43:41;;;;;;;9.13;6.13;;;;;;;20.78;56.83;100104.59;6582012;22;20003;-79
2022/05/23 07:46:14;;;;;;;10.05;5.80;;;;;;;20.97;57.10;100096.28;6582198;22;20063;-78
2022/05/23 07:48:48;;;;;;;14.18;6.55;;;;;;;21.14;56.20;100081.91;6583694;22;20014;-81
2022/05/23 07:51:23;;;;;;;14.68;5.47;;;;;;;21.26;54.41;100083.69;6586283;22;20045;-82
2022/05/23 08:02:27;;;;;;;9.10;5.40;;;;;;;22.43;53.31;100087.91;6566359;22;20031;-80
2022/05/23 08:04:59;;;;;;;14.38;6.13;;;;;;;22.66;52.18;100082.69;6562971;22;20068;-80
2022/05/23 08:07:32;;;;;;;11.03;4.87;;;;;;;22.69;51.68;100075.31;6563740;22;20007;-81
2022/05/23 08:10:04;;;;;;;9.75;5.25;;;;;;;22.55;50.89;100067.53;6564429;22;20015;-80
2022/05/23 08:12:36;;;;;;;9.85;4.90;;;;;;;22.33;52.70;100063.84;6573826;22;20003;-79
2022/05/23 08:15:08;;;;;;;9.55;4.97;;;;;;;22.45;51.99;100055.91;6573152;22;20003;-79
2022/05/23 08:17:39;;;;;;;10.60;5.80;;;;;;;22.10;52.07;100046.88;6570785;22;20035;-80
2022/05/23 08:20:11;;;;;;;9.37;4.97;;;;;;;21.82;53.79;100040.09;6570215;22;20003;-80
2022/05/23 08:22:44;;;;;;;10.85;5.20;;;;;;;21.63;53.50;100040.56;6570809;22;20412;-79
2022/05/23 08:25:16;;;;;;;10.77;4.50;;;;;;;21.66;55.39;100045.63;6570747;22;20010;-79
2022/05/23 08:27:47;;;;;;;8.30;4.60;;;;;;;21.78;53.60;100043.91;6570043;22;19999;-78
2022/05/23 08:30:20;;;;;;;15.53;5.40;;;;;;;21.80;55.50;100036.69;6569043;22;20007;-80
2022/05/23 08:32:51;;;;;;;7.80;4.47;;;;;;;21.68;55.25;100041.06;6569001;22;20392;-78
2022/05/23 08:35:24;;;;;;;9.17;4.30;;;;;;;21.65;55.86;100033.31;6564793;22;20007;-79
2022/05/23 08:37:56;;;;;;;10.18;4.85;;;;;;;21.80;55.52;100024.28;6564615;22;20482;-81
2022/05/23 08:40:46;;;;;;;10.23;4.93;;;;;;;22.06;52.70;100013.59;6562084;22;20078;-79
2022/05/23 08:43:29;;;;;;;7.90;4.35;;;;;;;22.27;52.92;100012.97;6562669;22;20407;-80
2022/05/23 08:46:02;;;;;;;9.25;4.45;;;;;;;22.26;51.68;100005.94;6562741;22;20007;-79
2022/05/23 08:48:47;;;;;;;7.90;4.25;;;;;;;22.42;54.84;100011.84;6561740;22;20628;-81
2022/05/23 08:51:32;;;;;;;10.63;4.78;;;;;;;22.55;52.17;100004.63;6562847;22;20052;-79
2022/05/23 08:54:18;;;;;;;10.20;4.80;;;;;;;22.72;51.80;100003.38;6562666;22;20010;-80
2022/05/23 08:56:58;;;;;;;7.72;4.72;;;;;;;22.65;51.49;100004.78;6562938;22;20003;-79
2022/05/23 08:59:38;;;;;;;8.25;4.10;;;;;;;22.83;52.35;99994.59;6563508;22;20114;-80
2022/05/23 09:02:33;;;;;;;9.50;4.85;;;;;;;22.85;51.57;99991.81;6562993;22;20068;-80
2022/05/23 09:05:13;;;;;;;8.98;4.72;;;;;;;22.78;52.23;99991.41;6559999;22;20011;-78
2022/05/23 09:07:54;;;;;;;9.75;4.32;;;;;;;22.57;53.55;99976.16;6563412;22;20038;-79
2022/05/23 09:10:48;;;;;;;10.40;5.07;;;;;;;22.58;50.66;99969.88;6562991;22;20011;-80
2022/05/23 09:13:19;;;;;;;11.73;3.88;;;;;;;22.32;54.12;99971.03;6567122;22;19999;-80
2022/05/23 09:15:54;;;;;;;10.13;4.60;;;;;;;22.31;52.86;99964.84;6564453;22;20029;-80
2022/05/23 09:18:40;;;;;;;13.15;4.40;;;;;;;22.37;52.39;99966.19;6561415;22;20034;-80
2022/05/23 09:21:11;;;;;;;7.47;4.03;;;;;;;22.49;51.71;99970.59;6561959;22;20620;-80
2022/05/23 09:23:51;;;;;;;8.87;4.50;;;;;;;22.47;51.12;99969.00;6561720;22;20007;-80
2022/05/23 09:26:29;;;;;;;8.20;4.97;;;;;;;22.12;52.25;99967.16;6561313;22;20033;-80
2022/05/23 09:29:09;;;;;;;10.20;4.60;;;;;;;22.09;52.38;99956.75;6561686;22;20033;-80
2022/05/23 09:31:45;;;;;;;11.20;4.90;;;;;;;21.96;53.05;99952.38;6560640;22;20110;-80
2022/05/23 09:34:31;;;;;;;8.70;4.38;;;;;;;22.36;54.46;99943.25;6561490;22;20329;-80
2022/05/23 09:37:14;;;;;;;11.75;4.32;;;;;;;22.44;51.44;99938.22;6560919;22;20026;-80
2022/05/23 09:39:55;;;;;;;12.18;5.45;;;;;;;23.20;49.85;99917.31;6560666;22;20507;-80
2022/05/23 09:48:21;;;;;;;7.90;4.07;;;;;;;24.04;48.94;99908.78;6560445;22;20050;-81
2022/05/23 09:51:12;;;;;;;9.27;4.60;;;;;;;23.82;49.02;99910.50;6561661;22;20014;-80
2022/05/23 09:53:52;;;;;;;10.80;4.60;;;;;;;23.79;48.78;99901.94;6563661;22;20614;-80
2022/05/23 09:56:34;;;;;;;10.90;4.97;;;;;;;24.59;51.99;99884.66;6562790;22;20048;-79
2022/05/23 09:59:18;;;;;;;7.83;5.20;;;;;;;25.76;44.50;99887.69;6564210;22;20034;-80
2022/05/23 10:01:49;;;;;;;14.98;6.18;;;;;;;25.87;42.29;99884.03;6564675;22;20408;-79
2022/05/23 10:04:30;;;;;;;11.52;5.63;;;;;;;26.77;42.87;99883.78;6567436;22;20070;-80
2022/05/23 10:07:01;;;;;;;10.65;5.82;;;;;;;27.25;40.27;99877.38;6571358;22;20050;-80
2022/05/23 10:09:37;;;;;;;8.70;4.82;;;;;;;27.96;40.49;99881.13;6562000;22;20058;-80
2022/05/23 10:12:09;;;;;;;8.35;4.65;;;;;;;28.43;37.56;99871.94;6562890;22;20010;-80
2022/05/23 10:14:46;;;;;;;9.00;4.90;;;;;;;29.31;34.61;99863.69;6564378;22;20082;-80
2022/05/23 10:17:26;;;;;;;10.40;4.75;;;;;;;30.06;35.25;99868.16;6562647;22;20007;-80
2022/05/23 10:20:23;;;;;;;10.23;4.35;;;;;;;31.42;33.87;99877.19;6562543;22;20078;-80
2022/05/23 10:23:04;;;;;;;7.53;4.70;;;;;;;30.57;31.90;99880.53;6564534;22;19999;-80
2022/05/23 10:25:58;;;;;;;8.75;4.45;;;;;;;31.32;33.63;99879.28;6562098;22;20654;-80
2022/05/23 10:29:08;;;;;;;10.73;4.80;;;;;;;32.10;32.42;99874.72;6562767;22;20003;-81
2022/05/23 10:31:55;;;;;;;11.00;4.03;;;;;;;32.79;30.83;99873.69;6558934;22;20110;-81
2022/05/23 10:34:43;;;;;;;10.65;4.45;;;;;;;33.27;30.37;99866.03;6561277;22;20076;-80
2022/05/23 10:37:21;;;;;;;12.38;4.53;;;;;;;32.92;30.99;99870.34;6560781;22;20339;-80
2022/05/23 10:43:05;;;;;;;12.00;3.80;;;;;;;34.32;28.29;99859.13;6562128;22;20441;-80
2022/05/23 10:45:54;;;;;;;7.72;4.60;;;;;;;34.17;28.37;99842.97;6560857;22;20014;-79
2022/05/23 10:48:34;;;;;;;10.90;4.70;;;;;;;34.33;28.73;99825.63;6562681;22;20037;-80
2022/05/23 10:51:29;;;;;;;9.52;4.40;;;;;;;34.93;27.66;99818.88;6561386;22;20015;-80
2022/05/23 10:54:30;;;;;;;9.85;4.78;;;;;;;35.26;26.31;99819.03;6561851;22;20393;-79
2022/05/23 10:57:27;;;;;;;6.93;4.13;;;;;;;35.09;25.89;99804.97;6561826;22;20007;-78
2022/05/23 11:00:13;;;;;;;9.40;4.00;;;;;;;35.24;24.32;99810.25;6563054;22;20381;-79
2022/05/23 11:03:26;;;;;;;13.45;4.25;;;;;;;35.88;24.33;99802.63;6562018;22;20333;-79
2022/05/23 11:06:20;;;;;;;7.93;4.28;;;;;;;35.59;24.08;99805.50;6464222;23;20458;-80
2022/05/23 11:09:25;;;;;;;6.50;4.20;;;;;;;35.84;26.37;99785.09;6438540;23;20004;-80
2022/05/23 11:12:00;;;;;;;11.27;4.80;;;;;;;36.09;23.90;99758.16;6438487;23;20013;-80
2022/05/23 11:14:38;;;;;;;7.75;5.22;;;;;;;35.20;27.22;99749.38;6463155;23;20004;-80
2022/05/23 11:17:32;;;;;;;7.35;4.20;;;;;;;35.94;24.22;99742.13;6463429;23;20041;-79
2022/05/23 11:20:19;;;;;;;13.57;5.22;;;;;;;35.88;25.56;99741.06;6438245;23;20435;-80
2022/05/23 11:22:58;;;;;;;8.52;4.60;;;;;;;35.56;23.46;99730.03;6462995;23;20379;-79
2022/05/23 11:25:39;;;;;;;8.30;3.20;;;;;;;34.44;27.25;99716.03;6438335;23;20012;-80
2022/05/23 11:34:44;;;;;;;7.80;3.58;;;;;;;31.84;28.42;99699.94;6462548;22;20450;-80
2022/05/23 11:40:06;;;;;;;7.53;3.58;;;;;;;34.81;26.86;99708.47;6473583;23;20016;-79
2022/05/23 11:43:00;;;;;;;7.10;3.40;;;;;;;34.95;25.01;99692.25;6552386;22;20069;-80
2022/05/23 11:48:33;;;;;;;6.57;3.70;;;;;;;31.45;29.44;99689.16;6561564;22;20019;-80
2022/05/23 11:51:17;;;;;;;7.47;3.47;;;;;;;30.86;30.01;99683.53;6561701;22;20316;-79
2022/05/23 11:54:00;;;;;;;6.30;2.85;;;;;;;30.75;30.35;99689.31;6560686;22;20102;-79
2022/05/23 11:56:33;;;;;;;3.42;2.40;;;;;;;29.94;30.42;99674.19;6561837;22;20086;-79
2022/05/23 11:59:07;;;;;;;6.28;3.03;;;;;;;29.33;33.26;99671.09;6560461;22;20066;-79
2022/05/23 12:01:39;;;;;;;5.50;2.70;;;;;;;28.68;34.66;99669.19;6561336;22;20416;-78
2022/05/23 12:04:16;;;;;;;6.63;2.88;;;;;;;28.14;33.66;99664.09;6561421;22;20061;-79
2022/05/23 12:06:47;;;;;;;6.35;2.40;;;;;;;27.61;34.93;99656.09;6561441;22;19999;-79
2022/05/23 12:09:19;;;;;;;;;;;;;;;28.32;33.02;99662.19;6561658;22;20018;-79
2022/05/23 12:11:52;;;;;;;4.17;2.70;;;;;;;27.04;34.24;99659.13;6561885;22;19915;-79
2022/05/23 12:14:32;;;;;;;5.78;2.75;;;;;;;26.78;35.29;99661.75;6561649;22;20106;-78
2022/05/23 12:17:20;;;;;;;6.25;2.45;;;;;;;26.50;36.21;99660.91;6561937;22;20010;-78
2022/05/23 12:19:57;;;;;;;5.20;2.30;;;;;;;26.50;38.89;99658.22;6559449;22;20003;-79
2022/05/23 12:22:37;;;;;;;7.70;2.50;;;;;;;26.48;34.73;99653.03;6560578;22;20011;-79
2022/05/23 12:25:08;;;;;;;6.82;2.55;;;;;;;26.41;36.33;99654.63;6560911;22;20090;-78
2022/05/23 12:28:00;;;;;;;;;;;;;;;27.26;34.88;99648.97;6561672;22;20526;-79
2022/05/23 12:30:44;;;;;;;7.22;2.47;;;;;;;26.88;36.43;99650.97;6561615;22;19915;-79
2022/05/23 12:33:23;;;;;;;7.15;2.75;;;;;;;26.86;35.75;99643.09;6559689;22;20012;-80
2022/05/23 12:35:58;;;;;;;6.70;3.33;;;;;;;26.88;36.11;99641.09;6562563;22;19999;-79
2022/05/23 12:38:41;;;;;;;3.33;2.25;;;;;;;26.96;35.52;99634.16;6560360;22;19999;-78
2022/05/23 12:41:18;;;;;;;6.38;2.47;;;;;;;26.61;37.00;99631.28;6559071;22;20007;-79
2022/05/23 12:44:08;;;;;;;5.15;2.25;;;;;;;26.72;36.65;99617.72;6559591;22;20504;-79
2022/05/23 12:47:20;;;;;;;6.35;2.17;;;;;;;26.67;36.78;99614.69;6560909;22;20004;-79
2022/05/23 12:50:05;;;;;;;7.05;2.60;;;;;;;26.84;38.56;99604.13;6559883;22;20060;-79
2022/05/23 12:52:51;;;;;;;7.70;2.63;;;;;;;27.03;36.91;99604.00;6561368;22;20014;-78
2022/05/23 12:55:41;;;;;;;7.90;2.55;;;;;;;27.02;37.25;99604.97;6562356;22;19999;-80
2022/05/23 12:59:06;;;;;;;7.40;2.75;;;;;;;26.93;36.54;99596.06;6560226;22;20026;-79
2022/05/23 13:01:43;;;;;;;4.78;2.15;;;;;;;26.13;39.89;99592.38;6461942;23;20021;-78
2022/05/23 13:04:26;;;;;;;7.00;2.80;;;;;;;26.06;39.92;99588.63;6462335;23;20008;-79
2022/05/23 13:07:12;;;;;;;5.55;2.53;;;;;;;25.93;39.90;99586.28;6462029;23;20116;-78
2022/05/23 13:09:50;;;;;;;7.38;2.63;;;;;;;25.69;40.65;99584.97;6462089;23;20051;-79
2022/05/23 13:12:36;;;;;;;5.82;2.95;;;;;;;25.56;41.55;99568.44;6436589;23;20039;-79
2022/05/23 13:15:09;;;;;;;3.58;2.20;;;;;;;25.67;44.13;99573.59;6461602;23;20438;-79
2022/05/23 13:17:44;;;;;;;8.57;2.33;;;;;;;25.38;43.75;99576.38;6461461;23;20008;-79
2022/05/23 13:23:33;;;;;;;6.80;2.40;;;;;;;25.15;41.20;99570.47;6462558;23;20426;-80
2022/05/23 13:26:10;;;;;;;4.82;2.60;;;;;;;24.80;42.79;99575.44;6464166;23;20040;-79
2022/05/23 13:28:47;;;;;;;7.45;2.72;;;;;;;24.68;43.08;99580.09;6441087;23;20039;-79
2022/05/23 13:31:34;;;;;;;11.13;3.88;;;;;;;24.57;45.48;99575.72;6467966;23;20009;-79
2022/05/23 13:34:07;;;;;;;5.57;3.08;;;;;;;24.43;46.10;99572.59;6469232;22;20012;-79
2022/05/23 13:36:45;;;;;;;12.30;3.88;;;;;;;24.51;47.67;99567.41;6565058;22;20440;-79
2022/05/23 13:39:17;;;;;;;12.82;4.00;;;;;;;24.45;49.13;99563.47;6563643;22;20030;-79
2022/05/23 13:41:49;;;;;;;8.52;4.10;;;;;;;24.60;48.43;99550.63;6563578;22;20016;-80
2022/05/23 13:44:32;;;;;;;10.82;4.38;;;;;;;24.98;46.91;99542.75;6564009;22;19999;-80
2022/05/23 13:47:10;;;;;;;8.00;4.13;;;;;;;25.26;46.14;99543.66;6562940;22;20015;-81
2022/05/23 13:49:53;;;;;;;10.52;4.53;;;;;;;25.41;47.23;99542.25;6562971;22;20412;-79
2022/05/23 13:52:49;;;;;;;15.05;5.22;;;;;;;25.14;47.72;99542.16;6563994;22;20007;-79
2022/05/23 13:55:30;;;;;;;12.00;4.13;;;;;;;25.15;46.66;99541.16;6562886;22;20091;-80
2022/05/23 13:58:09;;;;;;;17.50;4.68;;;;;;;24.83;48.11;99535.19;6563407;22;20003;-80
2022/05/23 14:00:48;;;;;;;8.75;4.47;;;;;;;24.60;48.96;99539.97;6563480;22;20421;-79
2022/05/23 14:03:41;;;;;;;13.10;4.82;;;;;;;24.35;50.91;99531.50;6561662;22;20014;-79
2022/05/23 14:06:15;;;;;;;;;;;;;;;24.70;49.08;99522.16;6563593;22;20349;-80
2022/05/23 14:08:54;;;;;;;9.50;4.22;;;;;;;24.31;51.26;99534.59;6562692;22;20335;-80
2022/05/23 14:11:30;;;;;;;11.63;4.65;;;;;;;24.28;52.20;99534.84;6535839;22;20007;-80
2022/05/23 14:14:14;;;;;;;9.85;3.65;;;;;;;24.13;52.79;99523.78;6562999;22;20018;-81